Have a Safe July 4th! 

Flight Track Log - Related Links

Times and Time Zones

All times are in EDT time to prevent confusion due to time zone crossing. See the SBE607 flight status page for this flight to view local times or setup timezone preferences in your user account.

Time Position Orientation Groundspeed Altitude Reporting Facility
EDT Latitude Longitude Course Direction KTS MPH feet Rate Location/Type
Mon 05:05:41 PM 37.6406 -97.4278 192° South 173 199 1,900  Level Kansas City Center
Mon 05:06:36 PM 37.5914 -97.4406 186° South 202 232 4,200 3,231 Climbing Kansas City Center
Mon 05:07:51 PM 37.5431 -97.3517 124° Southeast 253 291 8,900 3,547 Climbing Kansas City Center
Mon 05:08:53 PM 37.5131 -97.2608 113° Southeast 276 318 12,300 3,000 Climbing Kansas City Center
Mon 05:09:55 PM 37.4794 -97.1506 111° Southeast 334 384 15,100 3,000 Climbing Kansas City Center
Mon 05:10:57 PM 37.4414 -97.0336 112° Southeast 357 411 18,500 2,903 Climbing Kansas City Center
Mon 05:11:59 PM 37.4036 -96.9108 111° Southeast 372 428 21,100 2,129 Climbing Kansas City Center
Mon 05:13:01 PM 37.3450 -96.7906 121° Southeast 395 455 22,900 1,113 Climbing Kansas City Center
Mon 05:14:03 PM 37.2636 -96.6300 122° Southeast 439 505 23,400 1,597 Climbing Kansas City Center
Mon 05:15:05 PM 37.1953 -96.4950 122° Southeast 457 526 26,200 2,323 Climbing Kansas City Center
Mon 05:16:07 PM 37.1269 -96.3608 123° Southeast 453 521 28,200 2,177 Climbing Kansas City Center
Mon 05:17:09 PM 37.0597 -96.2286 122° Southeast 453 521 30,700 2,516 Climbing Kansas City Center
Mon 05:18:11 PM 36.9928 -96.1003 123° Southeast 444 511 33,400 2,516 Climbing Kansas City Center
Mon 05:19:13 PM 36.9292 -95.9742 122° Southeast 433 498 35,900 1,728 Climbing Kansas City Center
Mon 05:20:16 PM 36.8683 -95.8447 120° Southeast 433 498 37,000 528 Climbing Kansas City Center
Mon 05:21:18 PM 36.7917 -95.6792 120° Southeast 451 519 37,000  Level Kansas City Center
Mon 05:22:20 PM 36.7264 -95.5397 120° Southeast 460 529 37,000 339 Level Kansas City Center
Mon 05:23:22 PM 36.6625 -95.4017 120° Southeast 460 529 37,700 919 Climbing Kansas City Center
Mon 05:24:24 PM 36.5969 -95.2636 121° Southeast 458 527 38,900 629 Climbing Kansas City Center
Mon 05:25:26 PM 36.5275 -95.1167 120° Southeast 458 527 39,000 48 Climbing Kansas City Center
Mon 05:26:28 PM 36.4658 -94.9892 121° Southeast 458 527 39,000  Level Kansas City Center
Mon 05:27:30 PM 36.4014 -94.8569 121° Southeast 450 518 39,000  Level Kansas City Center
Mon 05:28:32 PM 36.3375 -94.7236 121° Southeast 449 517 39,000  Level Kansas City Center
Mon 05:29:34 PM 36.2731 -94.5894 121° Southeast 449 517 39,000  Level Kansas City Center
Mon 05:30:36 PM 36.1936 -94.4286 121° Southeast 450 518 39,000  Level Kansas City Center
Mon 05:31:31 PM 36.1414 -94.3206 121° Southeast 453 521 39,000  Level Memphis Center
Mon 05:32:33 PM 36.0747 -94.1867 122° Southeast 453 521 39,000  Level Memphis Center
Mon 05:33:35 PM 36.0103 -94.0517 121° Southeast 454 522 39,000  Level Memphis Center
Mon 05:34:37 PM 35.9342 -93.8942 121° Southeast 453 521 39,000  Level Memphis Center
Mon 05:35:39 PM 35.8697 -93.7639 121° Southeast 450 518 39,000  Level Memphis Center
Mon 05:36:41 PM 35.8053 -93.6336 121° Southeast 449 517 39,000  Level Memphis Center
Mon 05:37:44 PM 35.7397 -93.5039 122° Southeast 449 517 39,000  Level Memphis Center
Mon 05:38:46 PM 35.6733 -93.3722 122° Southeast 449 517 39,000  Level Memphis Center
Mon 05:39:48 PM 35.5942 -93.2142 122° Southeast 450 518 39,000  Level Memphis Center
Mon 05:40:50 PM 35.5283 -93.0814 121° Southeast 452 520 39,000  Level Memphis Center
Mon 05:41:52 PM 35.4608 -92.9492 122° Southeast 454 522 39,000  Level Memphis Center
Mon 05:42:54 PM 35.3922 -92.8139 122° Southeast 458 527 39,000  Level Memphis Center
Mon 05:43:56 PM 35.3181 -92.6683 122° Southeast 464 534 39,000  Level Memphis Center
Mon 05:44:58 PM 35.2483 -92.5336 122° Southeast 464 534 39,000  Level Memphis Center
Mon 05:46:00 PM 35.1794 -92.3969 122° Southeast 467 537 39,000  Level Memphis Center
Mon 05:47:02 PM 35.1089 -92.2619 123° Southeast 469 540 39,000  Level Memphis Center
Mon 05:48:04 PM 35.0383 -92.1261 122° Southeast 471 542 39,000  Level Memphis Center
Mon 05:49:06 PM 34.9528 -91.9619 122° Southeast 475 547 39,000  Level Memphis Center
Mon 05:50:08 PM 34.8825 -91.8292 123° Southeast 474 545 39,000  Level Memphis Center
Mon 05:51:10 PM 34.8114 -91.6925 122° Southeast 466 536 39,000  Level Memphis Center
Mon 05:52:13 PM 34.7439 -91.5639 123° Southeast 457 526 39,000  Level Memphis Center
Mon 05:53:15 PM 34.6750 -91.4331 123° Southeast 457 526 39,000  Level Memphis Center
Mon 05:54:17 PM 34.6039 -91.3014 123° Southeast 463 533 39,000  Level Memphis Center
Mon 05:55:19 PM 34.5203 -91.1414 122° Southeast 467 537 39,000  Level Memphis Center
Mon 05:56:21 PM 34.4478 -91.0069 123° Southeast 472 543 39,000  Level Memphis Center
Mon 05:57:23 PM 34.3753 -90.8708 123° Southeast 480 552 39,000  Level Memphis Center
Mon 05:58:25 PM 34.3025 -90.7353 123° Southeast 480 552 39,000  Level Memphis Center
Mon 05:59:27 PM 34.2292 -90.6011 123° Southeast 481 554 39,000  Level Memphis Center
Mon 06:00:29 PM 34.1569 -90.4686 123° Southeast 480 552 39,000  Level Memphis Center
Mon 06:01:31 PM 34.0711 -90.3117 123° Southeast 475 547 39,000  Level Memphis Center
Mon 06:02:33 PM 33.9983 -90.1794 124° Southeast 475 547 39,000  Level Memphis Center
Mon 06:03:35 PM 33.9264 -90.0481 123° Southeast 475 547 39,000  Level Memphis Center
Mon 06:04:37 PM 33.8531 -89.9153 124° Southeast 475 547 39,000  Level Memphis Center
Mon 06:05:40 PM 33.7667 -89.7575 123° Southeast 478 550 39,000  Level Memphis Center
Mon 06:06:42 PM 33.6917 -89.6214 123° Southeast 484 557 39,000  Level Memphis Center
Mon 06:07:44 PM 33.6194 -89.4892 123° Southeast 483 556 39,000  Level Memphis Center
Mon 06:08:46 PM 33.5464 -89.3589 124° Southeast 474 545 39,000  Level Memphis Center
Mon 06:09:48 PM 33.4717 -89.2269 124° Southeast 475 547 39,000  Level Memphis Center
Mon 06:10:50 PM 33.3972 -89.0961 124° Southeast 475 547 39,000  Level Memphis Center
Mon 06:11:52 PM 33.3072 -88.9367 124° Southeast 477 549 39,000  Level Memphis Center
Mon 06:12:54 PM 33.2317 -88.8044 124° Southeast 479 551 39,000  Level Memphis Center
Mon 06:13:56 PM 33.1561 -88.6728 124° Southeast 480 552 39,000  Level Memphis Center
Mon 06:14:58 PM 33.0814 -88.5419 124° Southeast 480 552 39,000  Level Memphis Center
Mon 06:16:00 PM 33.0061 -88.4103 124° Southeast 480 552 39,000  Level Memphis Center
Mon 06:17:02 PM 32.9156 -88.2531 124° Southeast 481 554 39,000  Level Memphis Center
Mon 06:18:04 PM 32.8378 -88.1206 125° Southeast 484 557 39,000  Level Memphis Center
Mon 06:19:06 PM 32.7614 -87.9872 124° Southeast 490 564 39,000  Level Memphis Center
Mon 06:20:08 PM 32.6878 -87.8603 125° Southeast 490 564 39,000  Level Memphis Center
Mon 06:21:10 PM 32.5981 -87.7050 124° Southeast 485 558 39,000  Level Atlanta Center
Mon 06:22:10 PM 32.5183 -87.5736 126° Southeast 485 558 39,000  Level Atlanta Center
Mon 06:23:10 PM 32.4486 -87.4553 125° Southeast 485 558 39,000  Level Atlanta Center
Mon 06:24:10 PM 32.3608 -87.3042 124° Southeast 492 566 39,000  Level Atlanta Center
Mon 06:25:10 PM 32.2789 -87.1686 126° Southeast 499 574 39,000  Level Atlanta Center
Mon 06:26:10 PM 32.1986 -87.0333 125° Southeast 504 580 39,000  Level Atlanta Center
Mon 06:27:10 PM 32.1164 -86.9006 126° Southeast 504 580 39,000  Level Atlanta Center
Mon 06:28:10 PM 32.0381 -86.7658 124° Southeast 509 586 39,000  Level Atlanta Center
Mon 06:29:10 PM 31.9553 -86.6311 126° Southeast 502 578 39,000  Level Atlanta Center
Mon 06:30:43 PM 31.8292 -86.4258 126° Southeast 492 566 39,000  Level Jacksonville Center
Mon 06:31:43 PM 31.7494 -86.2908 125° Southeast 498 573 39,000  Level Jacksonville Center
Mon 06:32:43 PM 31.6672 -86.1586 126° Southeast 498 573 39,000  Level Jacksonville Center
Mon 06:33:43 PM 31.5850 -86.0264 126° Southeast 498 573 39,000  Level Jacksonville Center
Mon 06:34:43 PM 31.5028 -85.8919 126° Southeast 498 573 39,000  Level Jacksonville Center
Mon 06:35:43 PM 31.4200 -85.7581 126° Southeast 505 581 39,000  Level Jacksonville Center
Mon 06:36:43 PM 31.3375 -85.6242 126° Southeast 505 581 39,000  Level Jacksonville Center
Mon 06:37:43 PM 31.2567 -85.4906 125° Southeast 510 587 39,000 -50 Level Jacksonville Center
Mon 06:38:43 PM 31.1522 -85.3881 140° Southeast 487 560 38,900 -50 Descending Jacksonville Center
Mon 06:39:43 PM 31.0433 -85.2981 145° Southeast 487 560 38,900 50 Level Jacksonville Center
Mon 06:40:43 PM 30.9344 -85.2031 143° Southeast 487 560 39,000  Climbing Jacksonville Center
Mon 06:41:43 PM 30.8214 -85.1083 144° Southeast 493 567 38,900  Descending Jacksonville Center
Mon 06:42:43 PM 30.7061 -85.0139 145° Southeast 499 574 39,000 50 Climbing Jacksonville Center
Mon 06:43:43 PM 30.5928 -84.9150 143° Southeast 510 587 39,000  Level Jacksonville Center
Mon 06:44:43 PM 30.4775 -84.8183 144° Southeast 510 587 39,000  Level Jacksonville Center
Mon 06:45:43 PM 30.3619 -84.7197 144° Southeast 515 593 39,000  Level Jacksonville Center
Mon 06:46:43 PM 30.2486 -84.6214 143° Southeast 515 593 39,000  Level Jacksonville Center
Mon 06:47:43 PM 30.1328 -84.5258 144° Southeast 510 587 39,000 -50 Level Jacksonville Center
Mon 06:48:43 PM 30.0192 -84.4328 145° Southeast 510 587 38,900  Descending Jacksonville Center
Mon 06:49:43 PM 29.9097 -84.3397 144° Southeast 510 587 39,000  Climbing Jacksonville Center
Mon 06:50:43 PM 29.7981 -84.2472 144° Southeast 510 587 38,900  Descending Jacksonville Center
Mon 06:51:43 PM 29.6861 -84.1572 145° Southeast 500 575 39,000 50 Climbing Jacksonville Center
Mon 06:52:43 PM 29.5764 -84.0650 144° Southeast 500 575 39,000  Level Jacksonville Center
Mon 06:53:43 PM 29.4644 -83.9731 144° Southeast 495 570 39,000  Level Jacksonville Center
Mon 06:54:43 PM 29.3525 -83.8814 144° Southeast 495 570 39,000  Level Jacksonville Center
Mon 06:55:43 PM 29.2403 -83.7875 144° Southeast 495 570 39,000  Level Jacksonville Center
Mon 06:56:43 PM 29.1303 -83.6983 145° Southeast 495 570 39,000  Level Jacksonville Center
Mon 06:57:43 PM 29.0203 -83.6072 144° Southeast 495 570 39,000  Level Jacksonville Center
Mon 06:58:43 PM 28.9122 -83.5164 144° Southeast 495 570 39,000  Level Jacksonville Center
Mon 06:59:43 PM 28.7978 -83.4256 145° Southeast 501 577 39,000  Level Jacksonville Center
Mon 07:00:43 PM 28.6856 -83.3353 145° Southeast 501 577 39,000  Level Jacksonville Center
Mon 07:01:43 PM 28.5753 -83.2447 144° Southeast 496 571 39,000  Level Jacksonville Center
Mon 07:02:43 PM 28.4628 -83.1522 144° Southeast 496 571 39,000  Level Jacksonville Center
Mon 07:03:43 PM 28.3583 -83.0742 147° Southeast 496 571 39,000  Level Jacksonville Center
Mon 07:04:51 PM 28.2292 -82.9681 144° Southeast 491 565 39,000  Level Miami Center
Mon 07:05:51 PM 28.1142 -82.8747 144° Southeast 503 579 39,000  Level Miami Center
Mon 07:06:52 PM 27.9828 -82.7714 145° Southeast 503 579 39,000  Level Miami Center
Mon 07:08:03 PM 27.8644 -82.7067 154° Southeast 502 578 39,000  Level Miami Center
Mon 07:09:03 PM 27.7247 -82.6572 163° South 482 555 39,000  Level Miami Center
Mon 07:10:04 PM 27.5972 -82.6086 161° South 482 555 39,000  Level Miami Center
Mon 07:11:03 PM 27.4553 -82.5572 162° South 476 548 39,000 -454 Level Miami Center
Mon 07:12:03 PM 27.3278 -82.5111 162° South 476 548 38,100 -1,250 Descending Miami Center
Mon 07:13:03 PM 27.2064 -82.4656 162° South 471 542 36,500 -1,785 Descending Miami Center
Mon 07:14:04 PM 27.0897 -82.4086 157° South 462 532 34,500 -1,750 Descending Miami Center
Mon 07:15:03 PM 26.9942 -82.2875 132° Southeast 473 544 33,000 -958 Descending Miami Center
Mon 07:16:03 PM 26.9083 -82.1764 131° Southeast 496 571 32,600 -1,350 Descending Miami Center
Mon 07:17:03 PM 26.8125 -82.0606 133° Southeast 506 582 30,300 -2,350 Descending Miami Center
Mon 07:18:03 PM 26.7161 -81.9492 134° Southeast 506 582 27,900 -2,650 Descending Miami Center
Mon 07:19:03 PM 26.6222 -81.8336 132° Southeast 501 577 25,000 -2,450 Descending Miami Center
Mon 07:20:03 PM 26.5258 -81.7206 134° Southeast 501 577 23,000 -1,140 Descending Miami Center
Mon 07:21:04 PM 26.4314 -81.6078 133° Southeast 496 571 22,700 -1,400 Descending Miami Center
Mon 07:22:03 PM 26.3450 -81.5022 132° Southeast 483 556 20,200 -2,723 Descending Miami Center
Mon 07:23:03 PM 26.2503 -81.3897 133° Southeast 466 536 17,300 -3,025 Descending Miami Center
Mon 07:24:04 PM 26.1656 -81.2894 133° Southeast 449 517 14,100 -2,678 Descending Miami Center
Mon 07:25:04 PM 26.0911 -81.2033 134° Southeast 412 474 11,900 -2,017 Descending Miami Center
Mon 07:26:03 PM 26.0286 -81.1269 132° Southeast 368 423 10,100 -1,253 Descending Miami Center
Mon 07:26:35 PM 25.9919 -81.0911 139° Southeast 311 358 10,000 -107 Descending Miami Center
Mon 07:26:59 PM 25.9697 -81.0650 133° Southeast 304 350 10,000  Level Miami Center
Mon 07:27:04 PM 25.9761 -81.0650 360° North 318 366 10,000  Level Miami Center
Mon 07:28:00 PM 25.9111 -80.9958 136° Southeast 296 341 10,000 -102 Level Miami Center
Mon 07:28:03 PM 25.9194 -80.9986 343° North 306 352 9,900 -1,935 Descending Miami Center
Mon 07:29:02 PM 25.8800 -80.9117 117° Southeast 309 356 8,000 -1,800 Descending Miami Center
Mon 07:29:03 PM 25.8864 -80.9119 358° North 300 345 8,100 -2,459 Climbing Miami Center
Mon 07:30:03 PM 25.8806 -80.8147 94° East 302 348 5,500 -2,459 Descending Miami Center
Mon 07:30:04 PM 25.8825 -80.8217 287° West 289 333 5,600 -2,361 Climbing Miami Center
Mon 07:31:04 PM 25.8894 -80.7228 86° East 282 325 3,100 -1,300 Descending Miami Center
Mon 07:32:04 PM 25.8936 -80.6375 87° East 279 321 3,000  Descending Miami Center
Mon 07:32:05 PM 25.8917 -80.6350 131° Southeast 279 321 3,100  Climbing Miami Center
Mon 07:33:06 PM 25.8981 -80.5522 85° East 272 313 3,000 -555 Descending Miami Center
Mon 07:34:04 PM 25.9042 -80.4714 85° East 269 310 2,000 -1,082 Descending Miami Center
Mon 07:34:07 PM 25.9000 -80.4667 134° Southeast 268 308 1,900 -508 Descending Miami Center
Mon 07:35:03 PM 25.9081 -80.3978 83° East 264 304 1,500 -393 Descending Miami Center
Mon 07:35:08 PM 25.9081 -80.3931 90° East 206 237 1,500 -492 Level Miami Center
Mon 07:36:04 PM 25.9092 -80.3469 88° East 214 246 1,000 -492 Descending Miami Center
Mon 07:36:09 PM 25.9072 -80.3422 115° Southeast 142 163 1,000  Level Miami Center
Mon 07:38:00 PM 25.9074 -80.2782 10° North  Level Estimated
Mon 07:45:00 PM 25.9074 -80.2782 10° North  Level Estimated

Login

Don't have an account? Register now (free) for customized features, flight alerts, and more!